Ana Sayfa
METAR-TAF:

METAR-TAF

Havaalanları :

Eskişehir Hava Üssü

Eskişehir, Türkiye

Enlem: 39-47N, Boylam: 030-34E, yükseklik: 785 m

METAR: eksik

Saat: 00:28 (21:28 UTC)

Tahmin

Rapor saat 19:40 UTC de 1 saat ve 48 dakika önce yapıldı.
Ayın 17'si saat 21 UTC'den ayın 18'si saat 06 UTC'ye kadar geçerli Tahmin
Rüzgar doğudan 10 kt
Görüş mesafesi 10 km veya daha fazla
2500 ft yükseklikte parçalı çok bulutlu
hafif yağmur

TAF: LTBI 171940Z 1721/1806 09010KT 9999 -RA BKN025

4.000'den fazla havaalanı için hava durumu gözlemleri ve tahminleri (METAR ve TAF raporları).

Kullanılabilir istasyonlar harita üzerinde sarı ve kırmızı noktalarla gösterilir.

İstasyonun adını görmek için fareyi noktanın üzerinde gezdirin.

Sonrasında hava gözlem ve tahminlerini görmek için tıklayın.

Haritayı değiştirmek için: yaklaştırmak için siyah artı işaretli yeşil düğmeye ve uzaklaştırmak için de eksi işaretli düğmeye hızla tıklayın; bitişik haritalar için yeşil okları kullanın.


METAR-TAF: